Mc Clellan Airfield
KMCC : now visible

Airfield :











YOU CAN JOIN US ON...

 
LOGIN :

Register | Disclaimer

   EN    FR    IT 

 









Legend :    VFR   Marginal VFR   IFR   Intensive IFR   Very Intensive IFR
Visi :
Ceiling :
>= 8 km
>= 3000ft
5 to 8 km
1000 to 3000 ft
1500m to 5 km
500 to 1000 ft
800 to 1500m
200 to 500 ft
< 800m
< 200 ft
Symbols :   Thunderstorms  Fog  Heavy snow  Heavy precipitations  Wind > 20 kt






- Airport Elevation : 77 ft


KMCC - Mc Clellan

CURRENT METAR :
  • 160835Z AUTO 18007KT 10SM FEW050 FEW055 11/04 A3000 RMK AO2

EXPIRED METARs :
  • 160815Z AUTO 17008KT 10SM FEW042 BKN055 11/05 A3001 RMK AO2
  • 160755Z AUTO 16007KT 10SM SCT055 12/06 A3001 RMK AO2
  • 160735Z AUTO 14007KT 10SM CLR 12/06 A3001 RMK AO2
  • 160715Z AUTO 14006KT 10SM CLR 12/06 A3001 RMK AO2
  • 160655Z AUTO 13006KT 10SM FEW041 FEW047 FEW055 12/06 A3001 RMK AO2
  • 160635Z AUTO 13005KT 10SM FEW042 FEW047 SCT055 12/06 A3000 RMK AO2
  • 160615Z AUTO 15004KT 10SM SCT042 BKN048 BKN055 13/06 A3000 RMK AO2
  • 160555Z AUTO 21005KT 10SM SCT041 BKN049 BKN055 14/06 A2999 RMK AO2

TAF KMCC
Valid from the 16 at 06:00 until the 17 at 06:00 UTC


160539Z 1606/1706 23004KT P6SM SKC
FM160700 VRB03KT P6SM SKC
FM162000 29007KT P6SM SKC
FM170300 23006KT P6SM SKC
KZOA FIR / North America



MET'MAP, your aeronautical weather chart ! - Copyright ORBIFLY December 2007 - Disclaimer

ORBIFLY MET'MAP TEAM :

Programming & Development : Alexandra Zaïnal
Concept & original design : Baudouin d'Aumeries
Assistance for programming : Marc-Olivier Méhu
Technical & hardware support : Manuel Goepfert

Contact : metmap@orbifly.com




SOURCES & CREDITS :

   NOAA       Earth
Advisory